Weather at Maarud

Public forecast

Using degrees Celsius for public forecast. Weather courtesy of forecast.io.

Closest aviation weather report (METAR) to Maarud

Closest report is Oslo Airport, Gardermoen, 13.9 nm (25.7 km) W.

2024/05/28 16:50 (retrieved 19 minutes ago)

ENGM 281650Z 08005KT 060V120 CAVOK 21/11 Q1010 TEMPO TSRA SCT030CB BKN040

Closest aviation forecast (TAF) to Maarud

Closest forecast is Oslo Airport, Gardermoen, 13.9 nm (25.7 km) W.

2024/05/28 12:36 (retrieved 5 hours ago)

TAF ENGM 281100Z 2812/2912 12004KT 9999 SCT040TCU BECMG 2816/2818 SHRA SCT030CB BKN040 TEMPO 2817/2822 19015G28KT 3000 TSRA BKN012 BKN030CB BECMG 2820/2822 19010KT -SHRA SCT012 BKN040 TEMPO 2822/2906 BKN012